Time;durP1;ratioP1;P1;durP2;ratioP2;P2;SDS_P1;SDS_P2;PMS_P1;PMS_P2;Temp;Humidity;BMP_temperature;BMP_pressure;BME280_temperature;BME280_humidity;BME280_pressure;Samples;Min_cycle;Max_cycle;Signal;HPM_P1;HPM_P2
2021/08/25 00:00:26;;;;;;;3.83;2.50;;;16.70;63.60;;;;;;5075754;28;20116;-78
2021/08/25 00:02:52;;;;;;;3.13;2.25;;;16.70;63.70;;;;;;5057724;28;20060;-78
2021/08/25 00:05:18;;;;;;;3.55;2.28;;;16.70;63.90;;;;;;5075719;28;20056;-78
2021/08/25 00:07:44;;;;;;;3.83;2.53;;;16.60;63.90;;;;;;5057477;28;20031;-78
2021/08/25 00:10:09;;;;;;;4.47;2.67;;;16.60;64.00;;;;;;5057431;28;20017;-78
2021/08/25 00:12:35;;;;;;;4.05;2.72;;;16.60;64.20;;;;;;5057484;28;20112;-78
2021/08/25 00:15:02;;;;;;;3.63;2.67;;;16.60;64.30;;;;;;5075262;28;20047;-78
2021/08/25 00:17:28;;;;;;;2.88;2.00;;;16.50;64.40;;;;;;5088188;28;20033;-78
2021/08/25 00:19:53;;;;;;;4.13;2.60;;;16.50;64.50;;;;;;5057300;28;20025;-78
2021/08/25 00:22:19;;;;;;;5.32;2.70;;;16.50;64.60;;;;;;5057123;28;20116;-78
2021/08/25 00:24:44;;;;;;;4.03;2.55;;;16.50;64.80;;;;;;5057178;28;20120;-78
2021/08/25 00:27:10;;;;;;;3.72;2.60;;;16.50;64.90;;;;;;5057097;28;20486;-78
2021/08/25 00:29:36;;;;;;;3.47;2.63;;;16.50;65.00;;;;;;5057065;28;20025;-78
2021/08/25 00:35:26;;;;;;;4.47;3.10;;;16.40;65.30;;;;;;5075374;28;20036;-78
2021/08/25 00:37:52;;;;;;;7.55;3.15;;;16.30;65.40;;;;;;5056979;28;20113;-78
2021/08/25 00:40:19;;;;;;;5.80;3.72;;;16.30;65.50;;;;;;5056915;28;20056;-78
2021/08/25 00:42:44;;;;;;;5.60;3.45;;;16.20;65.70;;;;;;5056788;28;20107;-78
2021/08/25 00:45:11;;;;;;;5.57;3.20;;;16.20;65.80;;;;;;5056294;28;20056;-78
2021/08/25 00:47:37;;;;;;;4.50;2.90;;;16.20;66.00;;;;;;5055923;28;20029;-78
2021/08/25 00:50:04;;;;;;;4.78;3.40;;;16.20;66.20;;;;;;5056776;28;20029;-77
2021/08/25 00:52:30;;;;;;;4.63;3.15;;;16.10;66.20;;;;;;5056747;28;20544;-78
2021/08/25 00:54:57;;;;;;;7.40;3.05;;;16.10;66.40;;;;;;5056630;28;20040;-78
2021/08/25 00:57:23;;;;;;;4.15;3.05;;;16.10;66.50;;;;;;5074579;28;20170;-78
2021/08/25 00:59:48;;;;;;;4.90;2.97;;;16.10;66.70;;;;;;5074480;28;20067;-78
2021/08/25 01:02:34;;;;;;;5.07;2.90;;;16.10;66.80;;;;;;5074502;28;20434;-78
2021/08/25 01:05:01;;;;;;;6.22;3.30;;;16.00;67.00;;;;;;5056571;28;20051;-78
2021/08/25 01:07:32;;;;;;;3.80;2.75;;;16.00;67.00;;;;;;5074414;28;20446;-77
2021/08/25 01:09:58;;;;;;;4.80;2.80;;;16.00;67.30;;;;;;5074282;28;20103;-78
2021/08/25 01:12:27;;;;;;;4.15;3.08;;;16.00;67.30;;;;;;5074411;28;20021;-78
2021/08/25 01:14:54;;;;;;;4.00;2.80;;;16.00;67.40;;;;;;5074243;28;20028;-78
2021/08/25 01:17:24;;;;;;;3.97;2.80;;;16.00;67.60;;;;;;5056165;28;20125;-78
2021/08/25 01:20:00;;;;;;;4.45;2.80;;;15.90;67.60;;;;;;5056015;28;20400;-77
2021/08/25 01:22:26;;;;;;;4.40;2.92;;;15.90;67.70;;;;;;5074049;28;20179;-78
2021/08/25 01:24:57;;;;;;;4.15;2.78;;;15.90;67.70;;;;;;5089478;28;20261;-78
2021/08/25 01:27:25;;;;;;;5.70;2.95;;;15.90;67.80;;;;;;5089496;28;20024;-78
2021/08/25 01:29:52;;;;;;;3.90;2.90;;;15.90;67.90;;;;;;5073934;28;20020;-78
2021/08/25 01:32:18;;;;;;;4.03;2.83;;;15.90;68.00;;;;;;5073838;28;20020;-78
2021/08/25 01:34:58;;;;;;;4.50;2.75;;;15.90;68.00;;;;;;5055788;28;20403;-78
2021/08/25 01:37:25;;;;;;;3.75;2.85;;;15.90;68.10;;;;;;5073823;28;20431;-77
2021/08/25 01:39:52;;;;;;;3.67;2.72;;;15.80;68.10;;;;;;5089304;28;20024;-78
2021/08/25 01:42:19;;;;;;;3.83;2.78;;;15.80;68.20;;;;;;5056064;28;20028;-78
2021/08/25 01:44:49;;;;;;;4.60;2.80;;;15.80;68.30;;;;;;5055851;28;20032;-78
2021/08/25 01:47:15;;;;;;;6.28;3.30;;;15.80;68.40;;;;;;5073444;28;20029;-78
2021/08/25 01:49:41;;;;;;;3.75;2.83;;;15.80;68.50;;;;;;5055592;28;20042;-78
2021/08/25 01:52:07;;;;;;;5.15;3.35;;;15.80;68.70;;;;;;5055529;28;20025;-78
2021/08/25 01:54:33;;;;;;;4.38;3.22;;;15.70;68.80;;;;;;5073421;28;20534;-78
2021/08/25 01:56:59;;;;;;;5.22;3.25;;;15.70;68.90;;;;;;5055366;28;20025;-78
2021/08/25 01:59:24;;;;;;;5.57;3.40;;;15.70;69.10;;;;;;5055483;28;20082;-78
2021/08/25 02:01:50;;;;;;;4.50;3.17;;;15.60;69.10;;;;;;5055499;28;20024;-78
2021/08/25 02:04:15;;;;;;;4.68;3.47;;;15.60;69.30;;;;;;5055895;28;20020;-78
2021/08/25 02:06:41;;;;;;;5.80;3.30;;;15.60;69.30;;;;;;5055232;28;20035;-78
2021/08/25 02:09:07;;;;;;;4.40;3.22;;;15.60;69.40;;;;;;5073021;28;20491;-78
2021/08/25 02:11:33;;;;;;;6.68;3.20;;;15.60;69.50;;;;;;5055330;28;20020;-77
2021/08/25 02:13:59;;;;;;;4.28;3.00;;;15.50;69.50;;;;;;5055137;28;20024;-77
2021/08/25 02:16:24;;;;;;;3.92;2.85;;;15.50;69.50;;;;;;5055015;28;20023;-77
2021/08/25 02:18:50;;;;;;;4.80;3.38;;;15.50;69.60;;;;;;5054945;28;20468;-77
2021/08/25 02:21:16;;;;;;;4.85;3.30;;;15.50;69.70;;;;;;5055233;28;20031;-77
2021/08/25 02:23:42;;;;;;;4.97;2.97;;;15.50;69.70;;;;;;5054884;28;20021;-78
2021/08/25 02:26:15;;;;;;;4.22;3.00;;;15.50;69.70;;;;;;5072832;28;20399;-77
2021/08/25 02:32:03;;;;;;;4.60;3.20;;;15.40;69.90;;;;;;5073196;28;20039;-77
2021/08/25 02:34:29;;;;;;;4.85;3.00;;;15.40;69.80;;;;;;5088604;28;20085;-77
2021/08/25 02:36:55;;;;;;;5.15;3.08;;;15.40;69.90;;;;;;5069825;28;20032;-77
2021/08/25 02:39:20;;;;;;;4.53;2.92;;;15.40;70.00;;;;;;5088673;28;20013;-77
2021/08/25 02:41:46;;;;;;;4.65;2.95;;;15.40;70.00;;;;;;5072662;28;20059;-77
2021/08/25 02:44:11;;;;;;;3.25;2.53;;;15.40;70.10;;;;;;5054985;28;20027;-78
2021/08/25 02:46:37;;;;;;;4.03;3.00;;;15.40;70.20;;;;;;5072576;28;20357;-77
2021/08/25 02:49:03;;;;;;;4.97;2.78;;;15.40;70.20;;;;;;5054527;28;20024;-77
2021/08/25 02:51:29;;;;;;;3.58;2.58;;;15.40;70.30;;;;;;5072774;28;20494;-77
2021/08/25 02:53:54;;;;;;;4.00;2.70;;;15.40;70.30;;;;;;5054547;28;20050;-77
2021/08/25 02:56:20;;;;;;;4.30;2.70;;;15.40;70.30;;;;;;5054482;28;20057;-77
2021/08/25 02:58:45;;;;;;;3.67;2.50;;;15.40;70.30;;;;;;5069476;28;20672;-77
2021/08/25 03:01:11;;;;;;;5.20;2.97;;;15.40;70.30;;;;;;5054450;28;20054;-77
2021/08/25 03:03:37;;;;;;;4.65;2.78;;;15.30;70.30;;;;;;5054568;28;20037;-77
2021/08/25 03:06:03;;;;;;;4.50;2.78;;;15.30;70.40;;;;;;5072440;28;20492;-77
2021/08/25 03:08:28;;;;;;;5.35;3.20;;;15.30;70.40;;;;;;5072547;28;20032;-77
2021/08/25 03:10:54;;;;;;;5.65;3.13;;;15.30;70.40;;;;;;5058236;28;20423;-78
2021/08/25 03:13:19;;;;;;;4.53;2.80;;;15.20;70.40;;;;;;5058611;28;20029;-77
2021/08/25 03:15:46;;;;;;;5.07;3.30;;;15.20;70.40;;;;;;5058436;28;20017;-77
2021/08/25 03:18:11;;;;;;;4.03;3.03;;;15.20;70.40;;;;;;5058499;28;20035;-77
2021/08/25 03:20:37;;;;;;;4.25;3.20;;;15.20;70.50;;;;;;5076486;28;20024;-78
2021/08/25 03:23:03;;;;;;;6.18;3.10;;;15.20;70.60;;;;;;5058418;28;20563;-77
2021/08/25 03:25:28;;;;;;;4.60;3.10;;;15.20;70.60;;;;;;5076145;28;20134;-77
2021/08/25 03:27:54;;;;;;;4.20;3.00;;;15.10;70.70;;;;;;5076112;28;20033;-77
2021/08/25 03:30:21;;;;;;;5.60;3.20;;;15.10;70.80;;;;;;5058196;28;20430;-77
2021/08/25 03:32:47;;;;;;;4.50;3.20;;;15.10;70.90;;;;;;5058267;28;20056;-77
2021/08/25 03:35:13;;;;;;;5.00;3.25;;;15.10;70.90;;;;;;5076244;28;20048;-77
2021/08/25 03:37:38;;;;;;;4.95;3.28;;;15.10;71.00;;;;;;5058037;28;20031;-77
2021/08/25 03:40:06;;;;;;;5.47;3.20;;;15.10;71.00;;;;;;5058025;28;20477;-78
2021/08/25 03:42:32;;;;;;;5.70;3.03;;;15.10;71.20;;;;;;5076082;28;20513;-78
2021/08/25 03:44:57;;;;;;;4.80;2.95;;;15.00;71.40;;;;;;5057859;28;20067;-78
2021/08/25 03:47:23;;;;;;;6.18;2.92;;;15.00;71.20;;;;;;5057819;28;20024;-78
2021/08/25 03:49:49;;;;;;;5.15;3.17;;;15.10;71.30;;;;;;5057974;28;20009;-78
2021/08/25 03:52:15;;;;;;;6.90;3.55;;;15.10;71.40;;;;;;5057884;28;20435;-78
2021/08/25 03:54:40;;;;;;;5.32;3.10;;;15.10;71.40;;;;;;5058076;28;20021;-77
2021/08/25 03:57:06;;;;;;;4.82;2.97;;;15.00;71.40;;;;;;5057716;28;20036;-77
2021/08/25 03:59:31;;;;;;;5.10;3.10;;;15.00;71.50;;;;;;5057965;28;20025;-77
2021/08/25 04:01:57;;;;;;;5.97;3.47;;;15.00;71.60;;;;;;5075570;28;20020;-77
2021/08/25 04:04:23;;;;;;;4.95;3.13;;;15.00;71.70;;;;;;5057494;28;20480;-78
2021/08/25 04:06:48;;;;;;;5.63;3.33;;;15.00;71.80;;;;;;5075542;28;20523;-77
2021/08/25 04:09:14;;;;;;;4.70;3.15;;;15.00;71.80;;;;;;5057471;28;20021;-77
2021/08/25 04:11:40;;;;;;;6.60;3.75;;;14.90;71.80;;;;;;5057760;28;20013;-77
2021/08/25 04:14:06;;;;;;;5.50;3.30;;;15.00;72.00;;;;;;5075193;28;20023;-77
2021/08/25 04:16:31;;;;;;;5.47;3.10;;;14.90;71.90;;;;;;5057457;28;20024;-77
2021/08/25 04:18:57;;;;;;;5.70;3.20;;;15.00;72.10;;;;;;5057352;28;20075;-77
2021/08/25 04:21:24;;;;;;;5.05;3.10;;;14.90;72.00;;;;;;5074908;28;20033;-77
2021/08/25 04:23:49;;;;;;;4.63;3.42;;;14.90;72.10;;;;;;5057136;28;20020;-77
2021/08/25 04:26:15;;;;;;;5.10;3.30;;;14.90;72.20;;;;;;5075073;28;20052;-78
2021/08/25 04:28:41;;;;;;;5.45;3.50;;;14.90;72.30;;;;;;5057024;28;20032;-78
2021/08/25 04:31:08;;;;;;;6.38;3.03;;;14.90;72.30;;;;;;5057102;28;20141;-77
2021/08/25 04:33:34;;;;;;;5.70;3.53;;;14.80;72.30;;;;;;5090572;28;20017;-77
2021/08/25 04:35:59;;;;;;;4.15;3.05;;;14.80;72.40;;;;;;5075002;28;20020;-77
2021/08/25 04:38:25;;;;;;;5.65;3.20;;;14.80;72.40;;;;;;5056929;28;20112;-77
2021/08/25 04:40:53;;;;;;;4.13;3.13;;;14.80;72.50;;;;;;5056887;28;20481;-79
2021/08/25 04:43:19;;;;;;;6.32;3.75;;;14.80;72.50;;;;;;5056863;28;20433;-78
2021/08/25 04:45:44;;;;;;;3.95;2.97;;;14.80;72.50;;;;;;5074892;28;20028;-77
2021/08/25 04:48:10;;;;;;;5.03;3.22;;;14.80;72.60;;;;;;5074688;28;20021;-77
2021/08/25 04:50:35;;;;;;;4.18;2.92;;;14.80;73.10;;;;;;5056663;28;20511;-77
2021/08/25 04:53:06;;;;;;;4.28;2.95;;;14.70;72.50;;;;;;5056725;28;20020;-78
2021/08/25 04:55:33;;;;;;;4.78;3.17;;;14.70;72.50;;;;;;5056579;28;20021;-77
2021/08/25 04:57:59;;;;;;;5.07;3.38;;;14.70;72.60;;;;;;5090012;28;20086;-77
2021/08/25 05:00:25;;;;;;;6.28;2.92;;;14.70;72.70;;;;;;5074607;28;20029;-77
2021/08/25 05:02:50;;;;;;;4.72;2.92;;;14.70;72.70;;;;;;5056545;28;20050;-77
2021/08/25 05:05:16;;;;;;;4.93;3.22;;;14.70;72.80;;;;;;5074491;28;20502;-77
2021/08/25 05:07:41;;;;;;;7.53;3.25;;;14.70;72.90;;;;;;5056261;28;20059;-77
2021/08/25 05:10:07;;;;;;;5.28;3.20;;;14.70;72.90;;;;;;5074325;28;20024;-77
2021/08/25 05:12:34;;;;;;;6.10;2.95;;;14.70;73.00;;;;;;5056528;28;20119;-77
2021/08/25 05:14:59;;;;;;;4.78;3.10;;;14.70;73.00;;;;;;5056121;28;20017;-78
2021/08/25 05:17:25;;;;;;;5.55;3.20;;;14.70;73.00;;;;;;5074234;28;20154;-78
2021/08/25 05:19:51;;;;;;;5.30;3.10;;;14.80;73.10;;;;;;5056134;28;20016;-78
2021/08/25 05:22:16;;;;;;;6.57;3.10;;;14.80;73.10;;;;;;5074172;28;20032;-78
2021/08/25 05:24:42;;;;;;;6.90;3.50;;;14.80;73.10;;;;;;5055951;28;20063;-78
2021/08/25 05:27:07;;;;;;;4.50;3.05;;;14.70;73.10;;;;;;5056110;28;20519;-78
2021/08/25 05:29:33;;;;;;;5.65;2.97;;;14.80;73.20;;;;;;5056048;28;20386;-78
2021/08/25 05:31:59;;;;;;;5.32;2.70;;;14.80;73.10;;;;;;5055211;28;20043;-78
2021/08/25 05:34:24;;;;;;;4.72;3.25;;;14.80;73.20;;;;;;5056153;28;20043;-78
2021/08/25 05:36:50;;;;;;;5.70;3.22;;;14.80;73.20;;;;;;5055995;28;20457;-78
2021/08/25 05:39:15;;;;;;;5.10;3.20;;;14.80;73.20;;;;;;5055902;28;20242;-78
2021/08/25 05:41:41;;;;;;;6.22;3.15;;;14.90;73.40;;;;;;5055958;28;20023;-78
2021/08/25 05:44:07;;;;;;;4.32;3.10;;;14.90;73.30;;;;;;5055590;28;20047;-78
2021/08/25 05:46:33;;;;;;;5.70;2.97;;;14.90;73.40;;;;;;5055784;28;20063;-78
2021/08/25 05:48:59;;;;;;;5.63;2.78;;;15.00;73.40;;;;;;5089116;28;20032;-78
2021/08/25 05:51:25;;;;;;;6.55;3.00;;;15.00;74.10;;;;;;5055702;28;20021;-78
2021/08/25 05:53:52;;;;;;;6.75;3.30;;;15.10;73.50;;;;;;5073541;28;20052;-78
2021/08/25 05:56:18;;;;;;;4.95;3.05;;;15.10;73.50;;;;;;5073450;28;20016;-78
2021/08/25 05:58:44;;;;;;;4.22;3.05;;;15.10;73.40;;;;;;5055437;28;20021;-78
2021/08/25 06:01:16;;;;;;;5.32;3.10;;;15.20;73.40;;;;;;5055344;28;20137;-78
2021/08/25 06:03:42;;;;;;;5.10;3.10;;;15.30;73.40;;;;;;5055465;28;20017;-78
2021/08/25 06:06:11;;;;;;;5.18;3.03;;;15.30;73.90;;;;;;5073499;28;20495;-79
2021/08/25 06:08:36;;;;;;;4.80;3.15;;;15.30;73.10;;;;;;5055224;28;20081;-78
2021/08/25 06:11:02;;;;;;;6.38;3.53;;;15.30;73.00;;;;;;5055216;28;20020;-78
2021/08/25 06:13:28;;;;;;;5.03;2.95;;;15.40;72.90;;;;;;5055313;28;20018;-78
2021/08/25 06:15:53;;;;;;;4.90;3.17;;;15.40;72.90;;;;;;5055053;28;20434;-78
2021/08/25 06:18:19;;;;;;;4.65;3.03;;;15.50;72.80;;;;;;5055255;28;20021;-78
2021/08/25 06:20:44;;;;;;;5.15;2.95;;;15.50;72.70;;;;;;5073099;28;20119;-78
2021/08/25 06:23:10;;;;;;;4.93;2.88;;;15.60;72.70;;;;;;5055062;28;20017;-78
2021/08/25 06:25:36;;;;;;;6.93;3.10;;;15.60;72.60;;;;;;5072783;28;20048;-78
2021/08/25 06:28:02;;;;;;;4.18;2.83;;;15.70;72.60;;;;;;5054816;28;20067;-78
2021/08/25 06:30:28;;;;;;;4.55;3.03;;;15.70;72.50;;;;;;5054983;28;20093;-78
2021/08/25 06:32:54;;;;;;;4.25;3.08;;;15.80;72.40;;;;;;5054871;28;20086;-78
2021/08/25 06:35:20;;;;;;;4.50;3.00;;;15.90;72.30;;;;;;5054857;28;20021;-78
2021/08/25 06:37:47;;;;;;;4.45;2.75;;;15.90;72.20;;;;;;5072805;28;20492;-78
2021/08/25 06:40:13;;;;;;;3.90;2.67;;;16.00;72.10;;;;;;5054879;28;20060;-78
2021/08/25 06:42:39;;;;;;;5.05;3.05;;;16.10;72.10;;;;;;5054806;28;20028;-78
2021/08/25 06:45:06;;;;;;;4.47;2.78;;;16.10;72.00;;;;;;5054547;28;20016;-78
2021/08/25 06:47:32;;;;;;;4.55;2.90;;;16.20;71.90;;;;;;5054626;28;20028;-78
2021/08/25 06:49:58;;;;;;;4.40;2.80;;;16.30;71.80;;;;;;5054601;28;20020;-78
2021/08/25 06:52:24;;;;;;;4.15;2.80;;;16.40;71.70;;;;;;5072777;28;20021;-78
2021/08/25 06:54:49;;;;;;;3.58;2.60;;;16.40;71.60;;;;;;5054546;28;20023;-78
2021/08/25 06:57:15;;;;;;;4.00;2.88;;;16.50;71.50;;;;;;5054588;28;20021;-78
2021/08/25 06:59:41;;;;;;;4.30;2.70;;;16.50;71.40;;;;;;5054523;28;20115;-78
2021/08/25 07:02:06;;;;;;;4.00;2.67;;;16.60;71.40;;;;;;5072574;28;20089;-78
2021/08/25 07:04:32;;;;;;;3.88;3.00;;;16.60;71.30;;;;;;5072703;28;20047;-78
2021/08/25 07:06:58;;;;;;;3.83;2.83;;;16.70;71.20;;;;;;5054488;28;20017;-78
2021/08/25 07:09:26;;;;;;;4.07;2.97;;;16.70;71.10;;;;;;5072437;28;20120;-78
2021/08/25 07:11:52;;;;;;;4.93;2.88;;;16.80;71.00;;;;;;5072574;28;20060;-78
2021/08/25 07:14:17;;;;;;;3.42;2.70;;;16.90;70.90;;;;;;5072687;28;20089;-78
2021/08/25 07:16:43;;;;;;;3.47;2.63;;;16.90;70.80;;;;;;5054320;28;20388;-78
2021/08/25 07:19:09;;;;;;;3.70;2.70;;;17.00;70.70;;;;;;5072170;28;20546;-78
2021/08/25 07:21:34;;;;;;;4.22;2.88;;;17.10;70.60;;;;;;5054343;28;20116;-78
2021/08/25 07:24:00;;;;;;;4.15;2.72;;;17.20;70.50;;;;;;5054289;28;20017;-78
2021/08/25 07:26:27;;;;;;;4.35;2.75;;;17.30;70.40;;;;;;5072049;28;20093;-78
2021/08/25 07:28:52;;;;;;;5.82;2.83;;;17.30;70.30;;;;;;5054294;28;20031;-78
2021/08/25 07:31:18;;;;;;;4.57;2.85;;;17.40;70.20;;;;;;5072119;28;20021;-78
2021/08/25 07:33:44;;;;;;;3.95;2.03;;;17.40;70.00;;;;;;5054275;28;20074;-78
2021/08/25 07:36:10;;;;;;;3.38;2.38;;;17.50;70.00;;;;;;5054270;28;20504;-78
2021/08/25 07:38:36;;;;;;;4.32;2.50;;;17.50;69.80;;;;;;5054266;28;20591;-78
2021/08/25 07:41:03;;;;;;;4.25;2.45;;;17.60;69.80;;;;;;5053995;28;20028;-78
2021/08/25 07:43:28;;;;;;;4.70;2.88;;;17.60;69.60;;;;;;5054068;28;20024;-78
2021/08/25 07:45:54;;;;;;;3.72;2.63;;;17.70;69.60;;;;;;5053975;28;20028;-78
2021/08/25 07:48:19;;;;;;;3.03;2.50;;;17.70;69.50;;;;;;5053840;28;20016;-78
2021/08/25 07:50:45;;;;;;;5.10;2.65;;;17.80;69.40;;;;;;5053935;28;20452;-76
2021/08/25 07:53:13;;;;;;;4.78;2.65;;;17.80;69.30;;;;;;5071944;28;20028;-75
2021/08/25 07:55:38;;;;;;;3.85;2.53;;;17.90;69.40;;;;;;5055483;28;20016;-75
2021/08/25 07:58:04;;;;;;;5.45;2.53;;;17.90;69.20;;;;;;5057684;28;20031;-75
2021/08/25 08:00:29;;;;;;;3.13;2.05;;;18.00;69.10;;;;;;5075624;28;20032;-74
2021/08/25 08:02:55;;;;;;;3.90;2.55;;;18.00;69.40;;;;;;5075584;28;20149;-75
2021/08/25 08:05:21;;;;;;;2.55;1.95;;;18.10;68.40;;;;;;5057456;28;20059;-75
2021/08/25 08:07:46;;;;;;;3.28;2.35;;;18.10;68.10;;;;;;5057473;28;20416;-75
2021/08/25 08:10:12;;;;;;;2.40;1.98;;;18.10;67.70;;;;;;5057742;28;20058;-75
2021/08/25 08:12:38;;;;;;;3.17;2.28;;;18.20;67.50;;;;;;5057412;28;20032;-75
2021/08/25 08:15:10;;;;;;;2.67;2.00;;;18.30;67.30;;;;;;5075381;28;20027;-75
2021/08/25 08:17:35;;;;;;;3.88;2.05;;;18.30;67.00;;;;;;5057355;28;20031;-74
2021/08/25 08:20:01;;;;;;;2.30;1.83;;;18.40;66.80;;;;;;5075241;28;20025;-75
2021/08/25 08:22:27;;;;;;;4.05;2.25;;;18.50;67.30;;;;;;5057162;28;20115;-75
2021/08/25 08:24:53;;;;;;;4.63;2.20;;;18.50;66.50;;;;;;5074971;28;20051;-75
2021/08/25 08:27:18;;;;;;;2.85;2.10;;;18.50;66.30;;;;;;5057021;28;20028;-75
2021/08/25 08:29:44;;;;;;;2.78;1.80;;;18.60;66.30;;;;;;5075235;28;20407;-75
2021/08/25 08:32:10;;;;;;;3.13;1.80;;;18.60;66.20;;;;;;5090633;28;20064;-75
2021/08/25 08:34:38;;;;;;;2.63;1.92;;;18.70;66.20;;;;;;5075023;28;20100;-75
2021/08/25 08:37:04;;;;;;;2.63;1.95;;;18.70;66.10;;;;;;5074887;28;20056;-75
2021/08/25 08:39:30;;;;;;;2.60;1.83;;;18.70;65.90;;;;;;5056910;28;20418;-76
2021/08/25 08:41:59;;;;;;;2.75;2.10;;;18.80;65.70;;;;;;5074943;28;20028;-75
2021/08/25 08:44:26;;;;;;;2.40;2.00;;;18.80;65.60;;;;;;5074762;28;20484;-75
2021/08/25 08:46:52;;;;;;;2.58;2.10;;;18.90;65.60;;;;;;5074621;28;20107;-76
2021/08/25 08:49:18;;;;;;;2.58;2.20;;;19.00;65.50;;;;;;5056757;28;20112;-75
2021/08/25 08:51:44;;;;;;;3.97;2.00;;;19.10;65.40;;;;;;5056613;28;20013;-75
2021/08/25 08:54:11;;;;;;;3.00;1.83;;;19.10;65.20;;;;;;5074631;28;20076;-75
2021/08/25 08:56:36;;;;;;;4.07;2.00;;;19.20;65.00;;;;;;5074545;28;20076;-77
2021/08/25 08:59:03;;;;;;;2.42;1.88;;;19.20;64.60;;;;;;5056568;28;20028;-75
2021/08/25 09:01:29;;;;;;;3.13;2.40;;;19.30;64.20;;;;;;5074559;28;20029;-76
2021/08/25 09:03:55;;;;;;;2.00;1.60;;;19.30;64.00;;;;;;5074600;28;20031;-76
2021/08/25 09:06:21;;;;;;;2.67;1.90;;;19.30;63.90;;;;;;5055734;28;20020;-76
2021/08/25 09:08:55;;;;;;;2.80;1.90;;;19.40;63.80;;;;;;5073823;28;20123;-76
2021/08/25 09:11:21;;;;;;;3.35;2.10;;;19.50;63.60;;;;;;5056256;28;20445;-75
2021/08/25 09:13:50;;;;;;;2.13;1.70;;;19.50;63.50;;;;;;5074398;28;20041;-75
2021/08/25 09:16:34;;;;;;;2.47;1.75;;;19.60;63.30;;;;;;5074104;28;20092;-75
2021/08/25 09:19:08;;;;;;;3.15;2.10;;;19.60;62.60;;;;;;5056269;28;20021;-76
2021/08/25 09:21:39;;;;;;;3.28;1.98;;;19.70;62.10;;;;;;5074122;28;20020;-75
2021/08/25 09:24:06;;;;;;;2.67;1.85;;;19.70;61.90;;;;;;5074028;28;20387;-75
2021/08/25 09:26:34;;;;;;;2.90;2.20;;;19.80;61.80;;;;;;5055994;28;20064;-75
2021/08/25 09:29:17;;;;;;;3.00;2.25;;;19.80;61.60;;;;;;5055851;28;20032;-75
2021/08/25 09:31:47;;;;;;;2.92;2.03;;;19.80;61.40;;;;;;5074017;28;20024;-75
2021/08/25 09:34:27;;;;;;;3.10;2.00;;;19.90;61.30;;;;;;5055801;28;20055;-75
2021/08/25 09:37:06;;;;;;;2.80;1.90;;;19.90;61.10;;;;;;5055935;28;20032;-75
2021/08/25 09:42:54;;;;;;;2.40;2.00;;;20.00;60.80;;;;;;5074052;28;20034;-79
2021/08/25 09:45:19;;;;;;;2.30;1.65;;;20.10;60.80;;;;;;5055483;28;20488;-78
2021/08/25 09:47:53;;;;;;;3.22;2.22;;;20.20;60.70;;;;;;5055386;28;20029;-79
2021/08/25 09:50:22;;;;;;;2.47;1.90;;;20.20;60.20;;;;;;5055508;28;20067;-80
2021/08/25 09:52:49;;;;;;;2.45;1.98;;;20.20;60.30;;;;;;5055513;28;20476;-78
2021/08/25 09:55:16;;;;;;;2.70;1.92;;;20.30;60.40;;;;;;5055873;28;20056;-78
2021/08/25 09:57:44;;;;;;;2.90;2.13;;;20.30;60.40;;;;;;5055515;28;20392;-78
2021/08/25 10:00:12;;;;;;;2.92;1.92;;;20.30;59.40;;;;;;5055470;28;20098;-78
2021/08/25 10:02:40;;;;;;;2.90;2.20;;;20.40;59.20;;;;;;5055363;28;20032;-78
2021/08/25 10:05:06;;;;;;;2.70;2.20;;;20.40;58.80;;;;;;5073320;28;20031;-78
2021/08/25 10:07:34;;;;;;;2.63;1.92;;;20.40;58.50;;;;;;5055080;28;20091;-78
2021/08/25 10:10:00;;;;;;;2.63;2.00;;;20.40;58.60;;;;;;5055194;28;20024;-79
2021/08/25 10:12:25;;;;;;;3.05;2.03;;;20.50;58.60;;;;;;5055198;28;20396;-78
2021/08/25 10:14:51;;;;;;;3.10;2.20;;;20.50;58.40;;;;;;5055272;28;20025;-78
2021/08/25 10:17:49;;;;;;;3.55;2.08;;;20.60;57.90;;;;;;5054906;28;20020;-78
2021/08/25 10:20:33;;;;;;;3.72;1.95;;;20.60;57.90;;;;;;5011908;28;20071;-78
2021/08/25 10:22:59;;;;;;;5.10;2.40;;;20.60;57.80;;;;;;5054881;28;20040;-78
2021/08/25 10:25:27;;;;;;;2.65;2.00;;;20.70;57.40;;;;;;5054515;28;20037;-77
2021/08/25 10:28:01;;;;;;;3.28;2.28;;;20.70;57.40;;;;;;5054659;28;20035;-77
2021/08/25 10:30:26;;;;;;;3.72;2.60;;;20.80;57.70;;;;;;5054912;28;20025;-77
2021/08/25 10:32:52;;;;;;;4.78;3.47;;;20.80;57.80;;;;;;5054807;28;20024;-77
2021/08/25 10:35:23;;;;;;;3.25;2.70;;;20.90;57.80;;;;;;5054530;28;20021;-77
2021/08/25 10:37:51;;;;;;;5.20;3.10;;;21.00;57.80;;;;;;5055861;28;20037;-76
2021/08/25 10:43:43;;;;;;;4.05;2.80;;;21.10;57.40;;;;;;5072641;28;20336;-74
2021/08/25 10:46:13;;;;;;;3.53;2.13;;;21.20;57.50;;;;;;5072574;28;20036;-73
2021/08/25 10:48:50;;;;;;;3.38;2.33;;;21.20;57.50;;;;;;5054323;28;20020;-73
2021/08/25 10:51:24;;;;;;;4.63;2.55;;;21.30;57.50;;;;;;5054452;28;20530;-73
2021/08/25 10:53:50;;;;;;;3.65;2.50;;;21.40;57.50;;;;;;5072399;28;20369;-73
2021/08/25 10:56:26;;;;;;;5.03;3.30;;;21.40;58.10;;;;;;5072434;28;20214;-73
2021/08/25 10:59:02;;;;;;;3.63;2.78;;;21.50;57.50;;;;;;5072406;28;20082;-78
2021/08/25 11:01:45;;;;;;;4.68;3.05;;;21.50;57.50;;;;;;5072612;28;20029;-77
2021/08/25 11:04:19;;;;;;;4.53;2.78;;;21.50;57.20;;;;;;5054507;28;20025;-77
2021/08/25 11:06:51;;;;;;;2.95;2.20;;;21.50;57.10;;;;;;5054513;28;20033;-77
2021/08/25 11:09:27;;;;;;;3.83;2.50;;;21.60;57.10;;;;;;5054340;28;20052;-77
2021/08/25 11:11:54;;;;;;;3.40;2.30;;;21.70;56.90;;;;;;5054442;28;20035;-77
2021/08/25 11:14:28;;;;;;;3.65;2.22;;;21.70;56.90;;;;;;5054354;28;20108;-77
2021/08/25 11:16:56;;;;;;;4.05;2.42;;;21.70;57.00;;;;;;5054305;28;20024;-77
2021/08/25 11:19:31;;;;;;;3.33;2.30;;;21.90;56.80;;;;;;5051717;28;20047;-77
2021/08/25 11:21:59;;;;;;;5.32;2.95;;;21.90;56.70;;;;;;5051379;28;20040;-77
2021/08/25 11:24:31;;;;;;;4.10;2.50;;;21.90;56.80;;;;;;5054180;28;20021;-77
2021/08/25 11:26:57;;;;;;;5.50;2.53;;;21.90;57.20;;;;;;5085018;28;20048;-77
2021/08/25 11:29:23;;;;;;;4.00;3.00;;;21.80;57.40;;;;;;5054288;28;20024;-77
2021/08/25 11:31:50;;;;;;;3.28;2.60;;;21.80;57.50;;;;;;5057652;28;20020;-77
2021/08/25 11:34:18;;;;;;;3.70;2.72;;;21.70;57.70;;;;;;5076433;28;20028;-77
2021/08/25 11:37:04;;;;;;;5.43;2.40;;;21.70;57.70;;;;;;5058148;28;20374;-77
2021/08/25 11:39:31;;;;;;;3.95;2.70;;;21.80;57.80;;;;;;5058608;28;20502;-77
2021/08/25 11:41:58;;;;;;;4.68;3.03;;;21.90;57.90;;;;;;5057991;28;20063;-77
2021/08/25 11:45:07;;;;;;;4.72;2.58;;;21.90;57.50;;;;;;5058007;28;20031;-77
2021/08/25 11:47:33;;;;;;;3.08;2.78;;;22.00;57.70;;;;;;5075858;28;20036;-77
2021/08/25 11:49:59;;;;;;;3.45;2.60;;;21.90;57.60;;;;;;5057867;28;20373;-77
2021/08/25 11:52:34;;;;;;;3.20;2.50;;;21.80;57.60;;;;;;5075935;28;20337;-77
2021/08/25 11:55:02;;;;;;;4.95;2.60;;;21.80;57.50;;;;;;5057922;28;20385;-77
2021/08/25 11:57:41;;;;;;;4.43;3.13;;;21.90;57.50;;;;;;5088722;28;20029;-77
2021/08/25 12:00:09;;;;;;;3.75;2.70;;;21.90;57.00;;;;;;5057615;28;20064;-77
2021/08/25 12:02:57;;;;;;;3.13;2.50;;;21.90;56.70;;;;;;5057689;28;20480;-77
2021/08/25 12:05:28;;;;;;;3.67;2.50;;;21.90;56.60;;;;;;5091028;28;20031;-77
2021/08/25 12:08:05;;;;;;;3.72;2.90;;;22.00;56.50;;;;;;5057735;28;20032;-77
2021/08/25 12:10:31;;;;;;;3.85;2.60;;;22.00;56.10;;;;;;5057650;28;20032;-77
2021/08/25 12:13:50;;;;;;;3.38;2.70;;;22.10;56.10;;;;;;5057425;28;20391;-77
2021/08/25 12:16:24;;;;;;;3.45;2.47;;;22.20;55.90;;;;;;5031396;28;20035;-77
2021/08/25 12:18:54;;;;;;;3.10;2.50;;;22.30;56.00;;;;;;5057129;28;20020;-77
2021/08/25 12:21:21;;;;;;;4.35;2.80;;;22.30;55.90;;;;;;5057232;28;20035;-77
2021/08/25 12:24:01;;;;;;;3.58;2.60;;;22.40;55.80;;;;;;5074533;28;20036;-76
2021/08/25 12:26:29;;;;;;;5.05;2.70;;;22.50;55.60;;;;;;5050190;28;20099;-76
2021/08/25 12:28:56;;;;;;;3.95;2.70;;;22.60;55.60;;;;;;5066723;28;20140;-76
2021/08/25 12:35:00;;;;;;;5.00;2.55;;;22.70;55.30;;;;;;5035547;28;20432;-77
2021/08/25 12:37:53;;;;;;;3.03;2.35;;;22.70;55.00;;;;;;5066965;28;20580;-75
2021/08/25 12:40:20;;;;;;;4.32;2.17;;;22.70;55.00;;;;;;5050241;28;20128;-76
2021/08/25 12:42:47;;;;;;;2.55;1.90;;;22.80;55.30;;;;;;5034727;28;20022;-77
2021/08/25 12:45:13;;;;;;;2.30;2.10;;;22.90;55.30;;;;;;5050079;28;20025;-76
2021/08/25 12:47:39;;;;;;;2.95;2.33;;;23.00;55.30;;;;;;5033301;28;20164;-76
2021/08/25 12:50:05;;;;;;;2.67;2.22;;;23.10;55.20;;;;;;5033546;28;20064;-77
2021/08/25 12:55:53;;;;;;;2.70;2.10;;;23.30;54.60;;;;;;5034965;28;20044;-77
2021/08/25 12:58:19;;;;;;;2.65;1.83;;;23.50;54.50;;;;;;5033467;28;20105;-77
2021/08/25 13:00:45;;;;;;;2.80;1.85;;;23.50;54.00;;;;;;5033405;28;20080;-77
2021/08/25 13:03:10;;;;;;;3.72;2.13;;;23.50;54.10;;;;;;5063632;28;20038;-76
2021/08/25 13:05:40;;;;;;;2.88;2.30;;;23.50;54.30;;;;;;5034754;28;20064;-77
2021/08/25 13:08:06;;;;;;;3.38;1.85;;;23.50;54.50;;;;;;5066569;28;20133;-77
2021/08/25 13:10:32;;;;;;;2.30;1.52;;;23.30;54.90;;;;;;5033343;28;20485;-76